Chelsea, New York
Current Conditions -  °F | °C
As of 7:53 AM on Monday 22 Dec 2014 (Local Time) from KPOU Reporting Station
Overcast Overcast  
Wind Chill: 33°   Ceiling: 1300
Heat Index: 33°   Visibility: 8mi
Dew Point: 28°   Wind: 3mph
Humidity: 82%   Direction: 350°N
Pressure: 30.34"   Gusts: NA
Location:  41.55°N, 73.96°W
Report Text: KPOU 221253Z 35003KT 8SM OVC013 01/M02 A3034 RMK AO2 SNB1157E06 SLP273 P0000 T00061022
Loading
Personal Weather Stations






























Interactive Weather Map New forecast layout! Learn more

10-Day Weather Forecast

Advertisements
Track Severe Weather on mobile